Time;durP1;ratioP1;P1;durP2;ratioP2;P2;SDS_P1;SDS_P2;PMS_P1;PMS_P2;Temp;Humidity;BMP_temperature;BMP_pressure;BME280_temperature;BME280_humidity;BME280_pressure;Samples;Min_cycle;Max_cycle;Signal;HPM_P1;HPM_P2
2022/09/11 00:01:13;;;;;;;26.08;15.07;;;13.70;61.50;;;;;;5019750;28;20057;-76
2022/09/11 00:03:41;;;;;;;23.40;14.38;;;13.60;61.50;;;;;;5025615;28;20125;-75
2022/09/11 00:06:10;;;;;;;25.75;15.55;;;13.60;61.60;;;;;;5023387;28;20037;-76
2022/09/11 00:08:40;;;;;;;26.48;16.13;;;13.60;61.80;;;;;;5023079;28;20049;-75
2022/09/11 00:11:15;;;;;;;25.85;15.75;;;13.60;62.00;;;;;;5022761;28;20026;-74
2022/09/11 00:13:41;;;;;;;26.58;16.45;;;13.60;62.30;;;;;;5023377;28;20083;-76
2022/09/11 00:16:27;;;;;;;27.73;17.23;;;13.50;62.40;;;;;;5012723;28;20558;-76
2022/09/11 00:18:56;;;;;;;28.33;17.50;;;13.50;62.70;;;;;;5039546;28;20487;-76
2022/09/11 00:21:22;;;;;;;25.85;16.42;;;13.50;62.70;;;;;;5054889;28;20098;-76
2022/09/11 00:23:48;;;;;;;27.63;16.83;;;13.50;62.70;;;;;;5056331;28;20125;-76
2022/09/11 00:26:16;;;;;;;26.55;17.08;;;13.40;62.80;;;;;;5057239;28;20116;-76
2022/09/11 00:28:44;;;;;;;26.13;17.73;;;13.40;62.80;;;;;;5048074;28;20144;-76
2022/09/11 00:31:13;;;;;;;25.58;17.48;;;13.40;62.80;;;;;;5055261;28;20044;-76
2022/09/11 00:33:40;;;;;;;27.75;17.30;;;13.40;62.90;;;;;;5056259;28;20403;-76
2022/09/11 00:36:14;;;;;;;31.27;17.50;;;13.30;63.00;;;;;;5057215;28;20037;-76
2022/09/11 00:38:41;;;;;;;26.67;16.27;;;13.30;63.00;;;;;;5072834;28;20033;-76
2022/09/11 00:41:16;;;;;;;26.55;16.55;;;13.30;63.00;;;;;;5038980;28;20037;-75
2022/09/11 00:43:54;;;;;;;28.52;14.77;;;13.30;63.00;;;;;;5055905;28;20040;-76
2022/09/11 00:46:24;;;;;;;24.05;15.57;;;13.30;63.10;;;;;;5053203;28;20036;-76
2022/09/11 00:48:50;;;;;;;24.10;14.88;;;13.20;63.00;;;;;;5055646;28;20036;-76
2022/09/11 00:51:28;;;;;;;24.20;15.60;;;13.30;63.00;;;;;;5057467;28;20040;-75
2022/09/11 00:53:56;;;;;;;22.42;14.82;;;13.20;63.00;;;;;;5056464;28;20503;-76
2022/09/11 00:56:26;;;;;;;24.98;15.23;;;13.20;62.90;;;;;;5042351;28;20045;-75
2022/09/11 00:58:54;;;;;;;28.85;16.55;;;13.20;62.90;;;;;;5056729;28;20082;-75
2022/09/11 01:01:20;;;;;;;32.45;17.00;;;13.20;62.90;;;;;;5058717;28;20128;-75
2022/09/11 01:03:46;;;;;;;27.33;17.45;;;13.20;63.00;;;;;;5055920;28;20119;-75
2022/09/11 01:06:13;;;;;;;27.13;17.95;;;13.20;63.20;;;;;;5043984;28;20028;-76
2022/09/11 01:08:39;;;;;;;31.95;18.23;;;13.10;63.30;;;;;;5056376;28;20025;-75
2022/09/11 01:11:23;;;;;;;29.02;17.60;;;13.10;63.40;;;;;;5054659;28;20067;-75
2022/09/11 01:14:06;;;;;;;28.83;18.20;;;13.10;63.50;;;;;;5047348;28;20037;-75
2022/09/11 01:17:11;;;;;;;27.90;17.48;;;13.10;63.50;;;;;;5043682;28;20037;-76
2022/09/11 01:19:52;;;;;;;32.70;18.27;;;13.00;63.50;;;;;;5032932;28;20072;-75
2022/09/11 01:22:43;;;;;;;30.02;18.02;;;13.10;63.50;;;;;;5026208;28;20040;-76
2022/09/11 01:25:40;;;;;;;31.15;18.55;;;13.00;63.60;;;;;;5018981;28;20025;-75
2022/09/11 01:28:24;;;;;;;28.88;18.38;;;13.00;63.80;;;;;;5037128;28;20079;-75
2022/09/11 01:30:55;;;;;;;29.00;17.70;;;13.00;63.80;;;;;;5009078;28;20057;-76
2022/09/11 01:33:41;;;;;;;29.70;17.90;;;12.90;63.90;;;;;;5016594;28;20080;-76
2022/09/11 01:36:11;;;;;;;31.55;18.10;;;13.00;64.00;;;;;;5069676;28;20072;-76
2022/09/11 01:38:45;;;;;;;25.95;16.88;;;12.90;63.90;;;;;;5023696;28;20115;-76
2022/09/11 01:41:28;;;;;;;28.50;18.30;;;12.90;64.00;;;;;;5034748;28;20037;-75
2022/09/11 01:44:16;;;;;;;28.58;16.50;;;12.90;64.10;;;;;;4992699;28;20029;-75
2022/09/11 01:46:48;;;;;;;30.33;17.88;;;12.80;64.00;;;;;;5035230;28;20056;-75
2022/09/11 01:49:21;;;;;;;25.23;17.02;;;12.90;64.10;;;;;;5035792;28;20032;-76
2022/09/11 01:51:54;;;;;;;28.63;17.10;;;12.90;64.00;;;;;;5023537;28;20074;-75
2022/09/11 01:54:25;;;;;;;30.98;17.15;;;12.90;64.00;;;;;;5036671;28;20067;-75
2022/09/11 01:56:54;;;;;;;27.50;17.95;;;12.80;64.00;;;;;;5034343;28;20182;-76
2022/09/11 01:59:30;;;;;;;27.30;17.67;;;12.80;64.00;;;;;;5034078;28;20452;-76
2022/09/11 02:02:05;;;;;;;28.15;17.40;;;12.80;64.00;;;;;;5035400;28;20124;-75
2022/09/11 02:04:48;;;;;;;30.88;17.23;;;12.80;64.00;;;;;;5034106;28;20045;-74
2022/09/11 02:07:20;;;;;;;29.25;17.60;;;12.80;64.00;;;;;;5033339;28;20033;-75
2022/09/11 02:09:53;;;;;;;;;;;12.70;63.90;;;;;;5025055;28;20033;-75
2022/09/11 02:12:28;;;;;;;27.95;17.08;;;12.80;64.00;;;;;;5056232;28;20382;-75
2022/09/11 02:14:54;;;;;;;27.25;16.85;;;12.70;63.90;;;;;;5052480;28;20029;-75
2022/09/11 02:17:39;;;;;;;26.90;17.45;;;12.70;64.10;;;;;;5037326;28;20566;-75
2022/09/11 02:20:08;;;;;;;25.13;16.85;;;12.70;64.10;;;;;;5035720;28;20095;-76
2022/09/11 02:22:35;;;;;;;27.90;18.27;;;12.70;64.20;;;;;;5035179;28;20035;-75
2022/09/11 02:25:02;;;;;;;26.15;17.15;;;12.60;64.20;;;;;;5023462;28;20045;-75
2022/09/11 02:27:30;;;;;;;29.40;18.52;;;12.70;64.30;;;;;;5020886;28;20075;-75
2022/09/11 02:29:57;;;;;;;26.40;17.95;;;12.60;64.40;;;;;;5087545;28;20546;-75
2022/09/11 02:32:25;;;;;;;29.00;18.50;;;12.60;64.50;;;;;;5053238;28;20039;-75
2022/09/11 02:34:54;;;;;;;30.98;19.50;;;12.60;64.50;;;;;;5037658;28;20060;-75
2022/09/11 02:37:33;;;;;;;26.52;18.38;;;12.60;64.50;;;;;;5052532;28;20090;-75
2022/09/11 02:40:37;;;;;;;33.90;18.95;;;12.50;64.50;;;;;;5021634;28;20033;-75
2022/09/11 02:43:22;;;;;;;27.45;17.83;;;12.60;64.40;;;;;;5058743;28;20501;-76
2022/09/11 02:46:33;;;;;;;28.92;18.70;;;12.60;64.40;;;;;;5028688;28;20049;-74
2022/09/11 02:49:19;;;;;;;30.67;18.50;;;12.50;64.40;;;;;;5053144;28;20434;-76
2022/09/11 02:52:01;;;;;;;28.27;19.08;;;12.50;64.40;;;;;;5054149;28;20041;-77
2022/09/11 02:54:51;;;;;;;31.35;18.90;;;12.50;64.40;;;;;;5016583;28;20075;-74
2022/09/11 02:57:29;;;;;;;27.30;18.35;;;12.50;64.50;;;;;;5040780;28;20056;-76
2022/09/11 03:00:01;;;;;;;29.60;18.75;;;12.50;64.60;;;;;;5036458;28;20043;-75
2022/09/11 03:02:30;;;;;;;30.40;19.75;;;12.50;64.70;;;;;;5057101;28;20036;-76
2022/09/11 03:04:57;;;;;;;29.25;18.42;;;12.50;64.90;;;;;;5058104;28;20033;-75
2022/09/11 03:07:24;;;;;;;28.13;18.70;;;12.40;65.40;;;;;;5051513;28;20035;-75
2022/09/11 03:09:51;;;;;;;29.95;19.00;;;12.40;64.80;;;;;;5036745;28;20530;-76
2022/09/11 03:12:20;;;;;;;29.38;19.33;;;12.40;64.90;;;;;;5028002;28;20041;-75
2022/09/11 03:14:49;;;;;;;29.73;19.42;;;12.40;64.90;;;;;;5053980;28;20039;-75
2022/09/11 03:17:15;;;;;;;32.15;20.13;;;12.40;64.90;;;;;;5052714;28;20029;-75
2022/09/11 03:19:41;;;;;;;29.60;19.70;;;12.40;64.90;;;;;;5039281;28;20060;-75
2022/09/11 03:22:07;;;;;;;32.00;20.15;;;12.40;64.90;;;;;;5036250;28;20137;-75
2022/09/11 03:24:33;;;;;;;30.55;19.23;;;12.40;64.90;;;;;;5054236;28;20120;-76
2022/09/11 03:27:00;;;;;;;30.27;19.90;;;12.40;64.80;;;;;;5053707;28;20033;-75
2022/09/11 03:29:27;;;;;;;28.17;19.02;;;12.40;64.80;;;;;;5053749;28;20037;-75
2022/09/11 03:31:57;;;;;;;29.13;19.35;;;12.40;64.90;;;;;;5035127;28;20209;-75
2022/09/11 03:34:24;;;;;;;30.83;20.50;;;12.40;64.90;;;;;;5036802;28;20098;-76
2022/09/11 03:36:51;;;;;;;30.02;18.83;;;12.40;65.00;;;;;;5035859;28;20048;-76
2022/09/11 03:39:17;;;;;;;29.17;19.52;;;12.40;65.00;;;;;;5056657;28;20044;-76
2022/09/11 03:41:43;;;;;;;28.17;19.90;;;12.40;65.00;;;;;;5055361;28;20040;-76
2022/09/11 03:44:11;;;;;;;31.17;20.40;;;12.40;65.10;;;;;;5027471;28;20037;-75
2022/09/11 03:46:38;;;;;;;28.05;19.30;;;12.40;65.00;;;;;;5033142;28;20029;-75
2022/09/11 03:49:05;;;;;;;30.55;19.85;;;12.40;65.00;;;;;;5032544;28;20034;-75
2022/09/11 03:51:32;;;;;;;31.20;19.63;;;12.40;65.00;;;;;;5035399;28;20036;-75
2022/09/11 03:54:02;;;;;;;28.83;19.65;;;12.40;65.00;;;;;;5066895;28;20025;-75
2022/09/11 03:56:29;;;;;;;32.83;20.35;;;12.40;65.00;;;;;;5053197;28;20040;-74
2022/09/11 03:58:57;;;;;;;30.45;20.95;;;12.40;65.10;;;;;;5052869;28;20029;-74
2022/09/11 04:01:23;;;;;;;33.38;20.73;;;12.40;65.10;;;;;;5036466;28;20159;-74
2022/09/11 04:03:51;;;;;;;32.65;21.15;;;12.40;65.10;;;;;;5064489;28;20425;-75
2022/09/11 04:06:25;;;;;;;30.73;20.45;;;12.40;65.10;;;;;;5057097;28;20591;-75
2022/09/11 04:08:53;;;;;;;32.08;21.42;;;12.50;65.20;;;;;;5041909;28;20115;-74
2022/09/11 04:11:21;;;;;;;30.35;21.60;;;12.40;65.20;;;;;;5053196;28;20519;-74
2022/09/11 04:13:49;;;;;;;37.90;23.17;;;12.50;65.40;;;;;;5052769;28;20036;-74
2022/09/11 04:16:18;;;;;;;35.22;21.27;;;12.40;65.30;;;;;;5051498;28;20107;-75
2022/09/11 04:18:48;;;;;;;34.78;22.15;;;12.40;65.40;;;;;;5052962;28;20040;-74
2022/09/11 04:21:16;;;;;;;33.85;22.00;;;12.50;65.50;;;;;;5055945;28;20105;-75
2022/09/11 04:23:46;;;;;;;31.95;22.33;;;12.50;65.50;;;;;;5056487;28;20029;-76
2022/09/11 04:26:18;;;;;;;31.58;22.23;;;12.50;65.50;;;;;;5040211;28;20060;-75
2022/09/11 04:28:48;;;;;;;31.25;20.60;;;12.50;65.60;;;;;;5056653;28;20107;-75
2022/09/11 04:31:16;;;;;;;27.70;19.17;;;12.50;65.40;;;;;;5054824;28;20041;-75
2022/09/11 04:33:43;;;;;;;28.05;19.00;;;12.50;65.20;;;;;;5057192;28;20037;-75
2022/09/11 04:36:12;;;;;;;27.92;18.55;;;12.50;65.10;;;;;;5057499;28;20094;-76
2022/09/11 04:38:40;;;;;;;28.38;19.33;;;12.50;65.00;;;;;;5061957;28;20037;-75
2022/09/11 04:41:08;;;;;;;28.10;17.92;;;12.60;64.90;;;;;;5054907;28;20040;-75
2022/09/11 04:43:37;;;;;;;25.35;17.45;;;12.60;64.80;;;;;;5060970;28;20068;-74
2022/09/11 04:46:15;;;;;;;25.60;16.80;;;12.60;64.70;;;;;;5073053;28;20101;-75
2022/09/11 04:48:46;;;;;;;27.13;17.20;;;12.60;64.60;;;;;;5055510;28;20036;-75
2022/09/11 04:51:29;;;;;;;25.25;16.48;;;12.60;64.50;;;;;;5060337;28;20086;-75
2022/09/11 04:53:57;;;;;;;24.00;15.63;;;12.70;64.50;;;;;;5057466;28;20148;-75
2022/09/11 04:56:28;;;;;;;23.27;15.55;;;12.70;64.40;;;;;;5039362;28;20029;-77
2022/09/11 04:59:16;;;;;;;22.10;15.50;;;12.70;64.30;;;;;;5056223;28;20099;-77
2022/09/11 05:01:51;;;;;;;22.17;15.65;;;12.80;64.30;;;;;;5055569;28;20025;-78
2022/09/11 05:04:20;;;;;;;21.40;15.35;;;12.80;64.30;;;;;;5056198;28;20036;-77
2022/09/11 05:06:49;;;;;;;23.70;14.80;;;12.80;64.40;;;;;;5039636;28;20115;-78
2022/09/11 05:09:17;;;;;;;22.60;14.73;;;12.90;64.40;;;;;;5039814;28;20140;-76
2022/09/11 05:11:45;;;;;;;20.02;14.00;;;13.10;64.20;;;;;;5056457;28;20074;-75
2022/09/11 05:14:11;;;;;;;19.98;14.23;;;13.30;64.30;;;;;;5065488;28;20322;-76
2022/09/11 05:16:40;;;;;;;18.45;13.77;;;13.50;64.40;;;;;;5045526;28;20040;-81
2022/09/11 05:19:08;;;;;;;19.40;13.10;;;13.80;64.20;;;;;;5060802;28;20406;-79
2022/09/11 05:21:35;;;;;;;17.02;12.60;;;13.90;63.80;;;;;;5071008;28;20033;-78
2022/09/11 05:24:02;;;;;;;20.08;12.93;;;14.10;64.10;;;;;;5063722;28;20036;-77
2022/09/11 05:26:35;;;;;;;18.13;12.27;;;14.20;63.10;;;;;;5055006;28;20080;-77
2022/09/11 05:29:08;;;;;;;17.50;12.55;;;14.40;62.90;;;;;;5050083;28;20202;-77
2022/09/11 05:31:39;;;;;;;19.23;11.88;;;14.60;62.80;;;;;;5060740;28;20067;-76
2022/09/11 05:34:07;;;;;;;17.73;12.77;;;14.80;62.70;;;;;;5047683;28;20052;-76
2022/09/11 05:36:34;;;;;;;14.48;11.27;;;14.90;62.50;;;;;;5044849;28;20037;-77
2022/09/11 05:39:02;;;;;;;14.77;11.27;;;15.10;62.40;;;;;;5042011;28;20499;-77
2022/09/11 05:41:29;;;;;;;16.77;11.57;;;15.30;62.20;;;;;;5027007;28;20033;-78
2022/09/11 05:43:56;;;;;;;15.05;10.98;;;15.50;61.90;;;;;;5031819;28;20392;-80
2022/09/11 05:46:24;;;;;;;14.98;11.77;;;15.70;61.90;;;;;;5047562;28;20081;-82
2022/09/11 05:48:54;;;;;;;18.48;12.55;;;16.00;61.70;;;;;;5055845;28;20090;-84
2022/09/11 05:51:20;;;;;;;20.33;12.48;;;16.20;61.10;;;;;;5052838;28;20386;-74
2022/09/11 05:53:55;;;;;;;19.48;12.90;;;16.40;61.10;;;;;;5039188;28;20033;-80
2022/09/11 05:56:23;;;;;;;18.02;11.93;;;16.60;61.70;;;;;;5030908;28;20498;-81
2022/09/11 05:58:52;;;;;;;19.13;12.70;;;16.90;60.80;;;;;;5059830;28;21325;-83
2022/09/11 06:01:25;;;;;;;17.17;12.02;;;17.10;58.90;;;;;;5066269;28;20060;-81
2022/09/11 06:04:01;;;;;;;22.55;13.10;;;17.20;57.70;;;;;;5049197;28;20115;-78
2022/09/11 06:06:29;;;;;;;19.45;12.98;;;17.40;57.30;;;;;;5058139;28;20445;-78
2022/09/11 06:08:55;;;;;;;21.63;13.52;;;17.50;57.30;;;;;;5046963;28;20410;-78
2022/09/11 06:11:21;;;;;;;22.50;13.23;;;17.60;57.00;;;;;;5053592;28;20035;-77
2022/09/11 06:13:48;;;;;;;22.52;13.13;;;17.70;56.90;;;;;;5044144;28;20028;-77
2022/09/11 06:16:22;;;;;;;20.70;13.55;;;17.80;56.90;;;;;;5049523;28;20043;-78
2022/09/11 06:18:50;;;;;;;18.27;11.95;;;17.90;56.40;;;;;;5056330;28;20162;-78
2022/09/11 06:21:20;;;;;;;23.23;14.05;;;18.00;56.00;;;;;;5051470;28;20033;-77
2022/09/11 06:23:54;;;;;;;20.52;12.75;;;18.10;55.50;;;;;;5033673;28;20029;-77
2022/09/11 06:26:22;;;;;;;16.17;12.40;;;18.20;55.50;;;;;;5033150;28;20498;-77
2022/09/11 06:28:50;;;;;;;19.17;11.85;;;18.30;55.00;;;;;;5061456;28;20455;-78
2022/09/11 06:31:22;;;;;;;18.40;12.40;;;18.40;55.20;;;;;;5060308;28;20037;-78
2022/09/11 06:33:51;;;;;;;14.02;11.27;;;18.50;54.90;;;;;;5061446;28;20029;-78
2022/09/11 06:36:20;;;;;;;18.13;11.55;;;18.50;54.50;;;;;;5067180;28;20527;-77
2022/09/11 06:38:50;;;;;;;19.25;11.18;;;18.60;54.10;;;;;;5042381;28;20503;-76
2022/09/11 06:41:17;;;;;;;23.35;8.70;;;18.70;54.70;;;;;;5066368;28;20070;-81
2022/09/11 06:43:43;;;;;;;10.15;7.22;;;18.90;55.60;;;;;;5037060;28;20449;-82
2022/09/11 06:46:13;;;;;;;11.52;7.18;;;19.00;55.30;;;;;;5037412;28;20113;-87
2022/09/11 06:48:43;;;;;;;10.55;6.63;;;19.00;54.80;;;;;;5054240;28;20037;-90
2022/09/11 06:51:12;;;;;;;11.45;6.82;;;19.10;54.60;;;;;;5039892;28;20068;-85
2022/09/11 06:53:39;;;;;;;9.93;6.53;;;19.20;54.80;;;;;;5077887;28;20040;-85
2022/09/11 06:56:16;;;;;;;9.65;6.13;;;19.20;55.00;;;;;;5018821;28;20041;-87
2022/09/11 06:58:45;;;;;;;10.25;6.72;;;19.20;55.00;;;;;;5023502;28;20067;-86
2022/09/11 07:01:14;;;;;;;7.07;5.90;;;19.20;54.70;;;;;;5030169;28;20469;-86
2022/09/11 07:03:44;;;;;;;10.52;6.13;;;19.20;54.90;;;;;;5032831;28;20083;-84
2022/09/11 07:06:16;;;;;;;8.18;5.40;;;19.20;55.10;;;;;;5033819;28;20452;-89
2022/09/11 07:08:53;;;;;;;7.57;5.20;;;19.20;55.30;;;;;;5040246;28;20032;-77
2022/09/11 07:11:20;;;;;;;7.03;5.15;;;19.20;56.20;;;;;;5045412;28;20432;-79
2022/09/11 07:13:47;;;;;;;9.68;4.80;;;19.20;55.40;;;;;;5032287;28;20496;-79
2022/09/11 07:16:16;;;;;;;5.30;4.13;;;19.20;55.40;;;;;;5040019;28;20474;-77
2022/09/11 07:18:46;;;;;;;8.80;4.70;;;19.20;55.00;;;;;;5035235;28;20037;-78
2022/09/11 07:21:22;;;;;;;6.80;4.25;;;19.20;55.10;;;;;;5039978;28;20034;-77
2022/09/11 07:23:53;;;;;;;5.57;3.70;;;19.20;55.10;;;;;;5032119;28;20025;-77
2022/09/11 07:26:21;;;;;;;8.73;4.10;;;19.30;55.20;;;;;;5040216;28;20024;-77
2022/09/11 07:28:50;;;;;;;4.32;3.47;;;19.30;55.10;;;;;;5032081;28;20037;-77
2022/09/11 07:31:19;;;;;;;4.60;3.25;;;19.40;55.00;;;;;;5025631;28;20037;-78
2022/09/11 07:33:47;;;;;;;6.55;3.00;;;19.30;55.10;;;;;;5048012;28;20508;-78
2022/09/11 07:36:17;;;;;;;4.70;3.33;;;19.40;55.40;;;;;;5044370;28;20096;-81
2022/09/11 07:38:48;;;;;;;5.32;3.22;;;19.40;55.50;;;;;;5053565;28;20044;-80
2022/09/11 07:41:16;;;;;;;5.40;3.35;;;19.40;55.60;;;;;;5058236;28;20037;-79
2022/09/11 07:43:47;;;;;;;4.80;3.33;;;19.40;55.80;;;;;;5052822;28;20041;-80
2022/09/11 07:46:13;;;;;;;4.05;2.92;;;19.50;55.90;;;;;;5053474;28;20033;-78
2022/09/11 07:48:41;;;;;;;3.80;3.20;;;19.40;56.00;;;;;;5023799;28;20500;-79
2022/09/11 07:51:10;;;;;;;6.43;3.83;;;19.40;55.50;;;;;;5052433;28;20074;-80
2022/09/11 07:53:41;;;;;;;5.13;3.42;;;19.40;55.30;;;;;;5040648;28;20034;-78
2022/09/11 07:56:13;;;;;;;3.80;3.10;;;19.40;55.50;;;;;;5054656;28;20029;-80
2022/09/11 07:58:41;;;;;;;4.70;3.20;;;19.40;55.20;;;;;;5045657;28;20084;-81
2022/09/11 08:01:10;;;;;;;4.30;3.22;;;19.40;55.30;;;;;;5073185;28;20522;-79
2022/09/11 08:03:36;;;;;;;3.22;2.50;;;19.30;54.00;;;;;;5062209;28;20033;-79
2022/09/11 08:06:06;;;;;;;4.40;2.40;;;19.40;54.90;;;;;;5072022;28;20033;-81
2022/09/11 08:08:34;;;;;;;3.50;2.30;;;19.40;55.10;;;;;;5060682;28;20032;-79
2022/09/11 08:11:09;;;;;;;3.33;2.17;;;19.40;54.60;;;;;;5039411;28;20044;-78
2022/09/11 08:13:36;;;;;;;3.55;2.33;;;19.40;54.80;;;;;;5055057;28;20082;-78
2022/09/11 08:16:04;;;;;;;3.85;2.30;;;19.30;54.60;;;;;;5056965;28;20140;-79
2022/09/11 08:18:31;;;;;;;4.70;2.50;;;19.30;54.30;;;;;;5055611;28;20040;-79
2022/09/11 08:21:07;;;;;;;3.17;2.35;;;19.30;53.60;;;;;;5055068;28;20032;-79
2022/09/11 08:23:42;;;;;;;3.05;2.25;;;19.20;53.90;;;;;;5055770;28;20029;-80
2022/09/11 08:26:12;;;;;;;3.53;2.15;;;19.20;54.20;;;;;;5026557;28;20036;-80
2022/09/11 08:28:42;;;;;;;3.35;2.20;;;19.20;54.00;;;;;;5061926;28;21143;-80
2022/09/11 08:31:08;;;;;;;3.72;2.75;;;19.20;53.40;;;;;;5055889;28;20526;-81
2022/09/11 08:33:35;;;;;;;4.20;2.42;;;19.20;53.20;;;;;;5055742;28;20039;-80
2022/09/11 08:36:05;;;;;;;4.15;2.92;;;19.20;53.10;;;;;;5039483;28;20035;-79
2022/09/11 08:38:32;;;;;;;3.10;2.30;;;19.10;54.40;;;;;;5026880;28;20078;-78
2022/09/11 08:41:14;;;;;;;3.92;2.50;;;19.10;54.00;;;;;;5061197;28;20037;-79
2022/09/11 08:44:08;;;;;;;3.90;2.30;;;19.10;53.90;;;;;;5051991;28;20511;-80
2022/09/11 08:46:40;;;;;;;4.18;2.40;;;19.00;51.90;;;;;;5029521;28;20050;-80
2022/09/11 08:49:25;;;;;;;2.15;1.85;;;19.00;52.40;;;;;;5051762;28;20511;-79
2022/09/11 08:51:57;;;;;;;3.05;1.80;;;19.00;52.00;;;;;;5068808;28;20038;-80
2022/09/11 08:54:36;;;;;;;4.18;1.73;;;18.90;51.70;;;;;;5036885;28;20037;-80
2022/09/11 08:57:17;;;;;;;2.25;1.50;;;18.90;51.10;;;;;;5005688;28;21166;-80
2022/09/11 08:59:55;;;;;;;4.97;2.17;;;18.90;50.90;;;;;;5032342;28;20384;-81
2022/09/11 09:02:27;;;;;;;3.28;1.60;;;18.70;50.50;;;;;;5044357;28;20530;-81
2022/09/11 09:04:59;;;;;;;2.35;1.50;;;18.70;51.20;;;;;;5022745;28;20032;-81
2022/09/11 09:07:42;;;;;;;2.38;1.67;;;18.70;51.40;;;;;;5027165;28;20040;-81
2022/09/11 09:10:27;;;;;;;3.90;1.88;;;18.70;51.40;;;;;;5027897;28;20037;-81
2022/09/11 09:13:08;;;;;;;2.78;1.67;;;18.70;51.20;;;;;;5055191;28;20037;-81
2022/09/11 09:15:52;;;;;;;1.50;1.40;;;18.60;51.60;;;;;;5039145;28;20033;-81
2022/09/11 09:18:32;;;;;;;5.68;1.67;;;18.60;51.80;;;;;;5021294;28;20045;-80
2022/09/11 09:21:09;;;;;;;2.08;1.83;;;18.60;50.80;;;;;;5053374;28;20495;-76
2022/09/11 09:23:41;;;;;;;5.55;1.80;;;18.60;53.60;;;;;;5055524;28;20032;-79
2022/09/11 09:26:16;;;;;;;4.38;1.67;;;18.60;54.70;;;;;;5059360;28;20032;-79
2022/09/11 09:28:45;;;;;;;2.75;1.50;;;18.60;55.30;;;;;;5071492;28;20036;-83
2022/09/11 09:31:18;;;;;;;2.65;1.50;;;18.70;55.20;;;;;;5057520;28;20135;-81
2022/09/11 09:33:53;;;;;;;2.42;1.63;;;18.70;54.50;;;;;;5054702;28;20036;-81
2022/09/11 09:36:32;;;;;;;4.55;1.63;;;18.70;54.40;;;;;;5047396;28;20039;-77
2022/09/11 09:39:00;;;;;;;1.85;1.50;;;18.70;53.00;;;;;;5068710;28;20119;-78
2022/09/11 09:41:40;;;;;;;1.98;1.45;;;18.70;52.70;;;;;;5016361;28;20041;-77
2022/09/11 09:44:35;;;;;;;2.40;1.67;;;18.70;52.30;;;;;;5034585;28;20083;-77
2022/09/11 09:47:01;;;;;;;2.05;1.35;;;18.60;52.30;;;;;;5020783;28;20044;-77
2022/09/11 09:49:35;;;;;;;1.98;1.70;;;18.60;52.40;;;;;;5034659;28;20033;-77
2022/09/11 09:52:30;;;;;;;2.60;1.73;;;18.60;52.90;;;;;;5033529;28;20033;-76
2022/09/11 09:55:05;;;;;;;2.27;1.70;;;18.60;53.00;;;;;;5042140;28;20041;-78
2022/09/11 09:57:34;;;;;;;2.72;1.85;;;18.60;52.80;;;;;;5035345;28;20299;-79
2022/09/11 10:00:10;;;;;;;2.78;1.83;;;18.60;52.60;;;;;;5022884;28;20418;-78
2022/09/11 10:02:47;;;;;;;3.13;1.55;;;18.60;52.80;;;;;;5038160;28;20111;-78
2022/09/11 10:05:29;;;;;;;1.88;1.65;;;18.60;53.10;;;;;;5035050;28;20143;-77
2022/09/11 10:07:58;;;;;;;2.78;1.77;;;18.60;53.10;;;;;;5043363;28;20178;-77
2022/09/11 10:10:35;;;;;;;2.90;1.63;;;18.60;52.50;;;;;;5043772;28;20049;-78
2022/09/11 10:13:17;;;;;;;2.28;1.73;;;18.50;52.20;;;;;;5042826;28;20090;-79
2022/09/11 10:15:47;;;;;;;1.85;1.48;;;18.50;52.60;;;;;;5042870;28;20487;-77
2022/09/11 10:18:31;;;;;;;2.58;1.70;;;18.50;52.40;;;;;;5046410;28;20046;-77
2022/09/11 10:21:12;;;;;;;1.83;1.20;;;18.50;52.80;;;;;;5039938;28;20057;-78
2022/09/11 10:23:49;;;;;;;2.75;1.65;;;18.50;52.60;;;;;;5042000;28;20068;-77
2022/09/11 10:26:23;;;;;;;1.95;1.58;;;18.50;52.50;;;;;;5056448;28;20124;-77
2022/09/11 10:28:51;;;;;;;2.08;1.38;;;18.50;53.00;;;;;;5035017;28;20037;-77
2022/09/11 10:31:17;;;;;;;3.35;1.98;;;18.50;52.60;;;;;;5031128;28;20052;-77
2022/09/11 10:34:00;;;;;;;2.08;1.60;;;18.50;52.80;;;;;;5030606;28;20458;-77
2022/09/11 10:36:28;;;;;;;1.73;1.50;;;18.50;52.80;;;;;;5044640;28;20048;-77
2022/09/11 10:38:56;;;;;;;1.95;1.50;;;18.50;53.10;;;;;;5026672;28;20511;-78
2022/09/11 10:41:33;;;;;;;2.78;1.52;;;18.50;52.90;;;;;;5030183;28;20034;-77
2022/09/11 10:44:03;;;;;;;3.15;1.50;;;18.40;52.10;;;;;;5034364;28;20068;-76
2022/09/11 10:46:37;;;;;;;2.45;1.63;;;18.40;51.70;;;;;;5022963;28;20060;-76
2022/09/11 10:49:04;;;;;;;1.38;1.13;;;18.40;52.20;;;;;;5029459;28;20124;-77
2022/09/11 10:51:33;;;;;;;1.63;1.30;;;18.40;52.40;;;;;;5030603;28;20571;-78
2022/09/11 10:54:30;;;;;;;2.20;1.38;;;18.50;52.00;;;;;;5030154;28;20554;-77
2022/09/11 10:57:15;;;;;;;2.33;1.42;;;18.50;52.20;;;;;;5027673;28;20049;-77
2022/09/11 10:59:57;;;;;;;1.92;1.55;;;18.50;52.10;;;;;;5027372;28;20496;-78
2022/09/11 11:02:33;;;;;;;1.63;1.33;;;18.40;52.30;;;;;;5046252;28;20045;-78
2022/09/11 11:05:18;;;;;;;1.77;1.38;;;18.50;51.70;;;;;;5032686;28;20196;-76
2022/09/11 11:07:53;;;;;;;2.50;1.25;;;18.40;51.90;;;;;;5017270;28;20033;-78
2022/09/11 11:10:22;;;;;;;1.50;1.38;;;18.50;52.00;;;;;;5033639;28;20033;-77
2022/09/11 11:13:32;;;;;;;2.47;1.50;;;18.50;52.00;;;;;;5033726;28;20068;-79
2022/09/11 11:16:16;;;;;;;5.65;1.60;;;18.50;52.30;;;;;;5040875;28;20101;-83
2022/09/11 11:19:01;;;;;;;1.65;1.30;;;18.50;52.20;;;;;;5025348;28;20036;-82
2022/09/11 11:21:47;;;;;;;1.85;1.35;;;18.40;52.20;;;;;;5041095;28;20444;-82
2022/09/11 11:24:20;;;;;;;1.98;1.55;;;18.50;52.30;;;;;;5026915;28;20044;-84
2022/09/11 11:26:52;;;;;;;1.70;1.35;;;18.50;52.30;;;;;;5017093;28;20209;-83
2022/09/11 11:29:49;;;;;;;2.95;1.48;;;18.50;52.30;;;;;;4998022;28;20132;-85
2022/09/11 11:32:24;;;;;;;1.30;1.13;;;18.50;52.30;;;;;;5016926;28;20037;-85
2022/09/11 11:35:19;;;;;;;3.15;1.40;;;18.50;51.70;;;;;;5017931;28;20149;-84
2022/09/11 11:37:48;;;;;;;1.42;1.20;;;18.40;51.30;;;;;;5015516;28;20049;-83
2022/09/11 11:40:22;;;;;;;1.55;1.23;;;18.50;52.10;;;;;;5033181;28;20535;-86
2022/09/11 11:43:02;;;;;;;1.85;1.13;;;18.50;51.40;;;;;;5000883;28;20121;-86
2022/09/11 11:45:37;;;;;;;1.92;1.00;;;18.40;51.20;;;;;;5032779;28;20038;-84
2022/09/11 11:48:14;;;;;;;1.45;1.02;;;18.40;51.00;;;;;;5002587;28;20384;-87
2022/09/11 11:50:51;;;;;;;0.90;0.90;;;18.50;51.80;;;;;;4992337;28;20026;-85
2022/09/11 11:53:39;;;;;;;1.38;1.00;;;18.40;51.70;;;;;;5019355;28;20046;-85
2022/09/11 11:56:19;;;;;;;1.08;1.00;;;18.40;51.70;;;;;;4997819;28;20111;-85
2022/09/11 11:58:55;;;;;;;1.20;1.00;;;18.50;51.40;;;;;;5015685;28;20443;-84
2022/09/11 12:01:41;;;;;;;1.45;1.20;;;18.40;51.30;;;;;;5017057;28;20033;-86
2022/09/11 12:04:40;;;;;;;1.45;1.30;;;18.50;51.50;;;;;;5047572;28;20037;-87
2022/09/11 12:07:17;;;;;;;1.77;1.23;;;18.40;51.40;;;;;;5063690;28;21593;-85
2022/09/11 12:09:52;;;;;;;1.52;1.10;;;18.40;51.20;;;;;;5045171;28;20039;-86
2022/09/11 12:12:22;;;;;;;2.03;1.35;;;18.50;51.50;;;;;;5054500;28;20087;-87
2022/09/11 12:15:21;;;;;;;2.35;1.00;;;18.40;51.30;;;;;;5072343;28;20039;-86
2022/09/11 12:17:59;;;;;;;1.20;1.10;;;18.40;51.10;;;;;;5056473;28;20045;-85
2022/09/11 12:20:29;;;;;;;1.25;1.00;;;18.40;51.30;;;;;;5056598;28;20576;-84
2022/09/11 12:22:57;;;;;;;2.67;1.20;;;18.40;51.60;;;;;;5049069;28;20159;-85
2022/09/11 12:25:49;;;;;;;2.33;1.23;;;18.40;51.40;;;;;;5056765;28;20032;-85
2022/09/11 12:28:24;;;;;;;2.45;1.00;;;18.40;51.30;;;;;;5055283;28;20033;-85
2022/09/11 12:31:19;;;;;;;2.42;1.40;;;18.40;51.30;;;;;;5028491;28;20056;-86
2022/09/11 12:33:53;;;;;;;1.77;1.17;;;18.40;50.80;;;;;;5038223;28;20041;-84
2022/09/11 12:36:23;;;;;;;2.03;1.27;;;18.30;51.10;;;;;;5061037;28;20067;-84
2022/09/11 12:38:55;;;;;;;2.28;1.08;;;18.40;51.40;;;;;;5059056;28;20059;-86
2022/09/11 12:41:27;;;;;;;1.40;1.00;;;18.40;51.60;;;;;;5057354;28;20028;-86
2022/09/11 12:43:53;;;;;;;3.70;1.20;;;18.40;51.10;;;;;;5067828;28;20040;-83
2022/09/11 12:46:19;;;;;;;1.23;0.93;;;18.30;51.20;;;;;;5062361;28;20491;-86
2022/09/11 12:48:55;;;;;;;0.95;0.85;;;18.40;51.00;;;;;;5040113;28;20120;-85
2022/09/11 12:51:26;;;;;;;0.90;0.85;;;18.30;51.00;;;;;;5059651;28;20033;-85
2022/09/11 12:53:59;;;;;;;1.77;1.20;;;18.30;51.40;;;;;;5042149;28;20048;-84
2022/09/11 12:56:28;;;;;;;1.60;1.17;;;18.30;51.10;;;;;;5056042;28;20098;-84
2022/09/11 12:59:03;;;;;;;1.17;1.02;;;18.30;51.20;;;;;;5028876;28;20055;-84
2022/09/11 13:01:34;;;;;;;1.02;0.95;;;18.30;51.30;;;;;;5054281;28;20036;-84
2022/09/11 13:04:09;;;;;;;1.65;0.93;;;18.30;51.30;;;;;;5054530;28;20064;-84
2022/09/11 13:06:41;;;;;;;1.63;1.17;;;18.30;50.80;;;;;;5056062;28;20421;-84